sensor_id;sensor_type;location;lat;lon;timestamp;pressure;altitude;pressure_sealevel;temperature;humidity
64362;BME280;50685;53.346;-6.296;2022-10-16T00:07:15;99731.03;;;8.20;76.66
64362;BME280;50685;53.346;-6.296;2022-10-16T00:39:30;99808.84;;;8.04;77.31
64362;BME280;50685;53.346;-6.296;2022-10-16T01:17:51;99822.13;;;7.99;75.65
64362;BME280;50685;53.346;-6.296;2022-10-16T02:02:10;99909.63;;;7.76;75.21
64362;BME280;50685;53.346;-6.296;2022-10-16T02:14:21;99910.56;;;7.72;75.89
64362;BME280;50685;53.346;-6.296;2022-10-16T02:20:15;99900.00;;;7.74;75.46
64362;BME280;50685;53.346;-6.296;2022-10-16T02:25:56;99918.47;;;7.74;75.54
64362;BME280;50685;53.346;-6.296;2022-10-16T03:31:36;100047.91;;;7.64;71.01
64362;BME280;50685;53.346;-6.296;2022-10-16T03:40:12;100066.59;;;7.49;72.19
64362;BME280;50685;53.346;-6.296;2022-10-16T05:03:46;100265.50;;;7.26;72.08
64362;BME280;50685;53.346;-6.296;2022-10-16T05:06:11;100254.94;;;7.29;71.87
64362;BME280;50685;53.346;-6.296;2022-10-16T05:09:02;100261.06;;;7.34;71.33
64362;BME280;50685;53.346;-6.296;2022-10-16T05:11:44;100253.97;;;7.39;71.36
64362;BME280;50685;53.346;-6.296;2022-10-16T05:14:10;100230.19;;;7.44;71.29
64362;BME280;50685;53.346;-6.296;2022-10-16T05:16:38;100252.13;;;7.51;70.99
64362;BME280;50685;53.346;-6.296;2022-10-16T06:24:32;100335.34;;;7.92;70.88
64362;BME280;50685;53.346;-6.296;2022-10-16T06:27:10;100342.38;;;7.90;70.84
64362;BME280;50685;53.346;-6.296;2022-10-16T06:29:36;100342.41;;;7.88;70.96
64362;BME280;50685;53.346;-6.296;2022-10-16T13:16:18;100559.31;;;11.19;59.19
64362;BME280;50685;53.346;-6.296;2022-10-16T13:30:31;100528.56;;;11.09;60.52
64362;BME280;50685;53.346;-6.296;2022-10-16T13:35:55;100525.06;;;11.07;60.53
64362;BME280;50685;53.346;-6.296;2022-10-16T13:42:02;100529.59;;;11.02;61.26
64362;BME280;50685;53.346;-6.296;2022-10-16T13:44:36;100512.81;;;11.00;61.53
64362;BME280;50685;53.346;-6.296;2022-10-16T13:47:28;100509.38;;;10.95;62.48
64362;BME280;50685;53.346;-6.296;2022-10-16T13:53:10;100491.78;;;10.90;63.03
64362;BME280;50685;53.346;-6.296;2022-10-16T13:55:49;100483.00;;;10.87;64.65
64362;BME280;50685;53.346;-6.296;2022-10-16T13:58:35;100469.00;;;10.79;65.23
64362;BME280;50685;53.346;-6.296;2022-10-16T14:01:27;100468.25;;;10.72;66.12
64362;BME280;50685;53.346;-6.296;2022-10-16T14:04:19;100474.50;;;10.68;66.82
64362;BME280;50685;53.346;-6.296;2022-10-16T14:06:49;100474.53;;;10.66;67.00
64362;BME280;50685;53.346;-6.296;2022-10-16T14:09:41;100465.72;;;10.66;67.96
64362;BME280;50685;53.346;-6.296;2022-10-16T14:12:24;100457.75;;;10.66;68.40
64362;BME280;50685;53.346;-6.296;2022-10-16T14:14:55;100451.59;;;10.64;68.96
64362;BME280;50685;53.346;-6.296;2022-10-16T14:17:53;100447.16;;;10.64;68.90
64362;BME280;50685;53.346;-6.296;2022-10-16T14:23:31;100434.81;;;10.61;69.50
64362;BME280;50685;53.346;-6.296;2022-10-16T14:26:15;100433.78;;;10.70;69.90
64362;BME280;50685;53.346;-6.296;2022-10-16T14:34:53;100402.63;;;10.80;68.59
64362;BME280;50685;53.346;-6.296;2022-10-16T14:40:29;100404.31;;;10.86;68.86
64362;BME280;50685;53.346;-6.296;2022-10-16T14:43:14;100406.88;;;10.90;69.33
64362;BME280;50685;53.346;-6.296;2022-10-16T14:45:58;100398.88;;;10.92;69.22
64362;BME280;50685;53.346;-6.296;2022-10-16T14:48:26;100401.47;;;10.95;68.90
64362;BME280;50685;53.346;-6.296;2022-10-16T14:51:00;100401.41;;;10.98;69.25
64362;BME280;50685;53.346;-6.296;2022-10-16T14:53:53;100402.16;;;11.03;69.32
64362;BME280;50685;53.346;-6.296;2022-10-16T14:56:57;100384.34;;;11.08;69.29
64362;BME280;50685;53.346;-6.296;2022-10-16T14:59:40;100388.72;;;11.13;69.21
64362;BME280;50685;53.346;-6.296;2022-10-16T15:02:32;100379.75;;;11.17;69.19
64362;BME280;50685;53.346;-6.296;2022-10-16T15:05:16;100369.91;;;11.23;69.47
64362;BME280;50685;53.346;-6.296;2022-10-16T15:07:48;100361.81;;;11.30;69.23
64362;BME280;50685;53.346;-6.296;2022-10-16T15:10:46;100354.41;;;11.43;68.87
64362;BME280;50685;53.346;-6.296;2022-10-16T15:18:52;100338.88;;;11.63;68.08
64362;BME280;50685;53.346;-6.296;2022-10-16T15:37:32;100283.69;;;11.74;66.76
64362;BME280;50685;53.346;-6.296;2022-10-16T15:40:18;100280.16;;;11.74;67.31
64362;BME280;50685;53.346;-6.296;2022-10-16T15:52:29;100266.31;;;11.63;67.80
64362;BME280;50685;53.346;-6.296;2022-10-16T16:01:13;100247.84;;;11.20;72.11
64362;BME280;50685;53.346;-6.296;2022-10-16T16:18:37;100215.63;;;10.60;80.74
64362;BME280;50685;53.346;-6.296;2022-10-16T16:27:12;100194.41;;;10.60;81.87
64362;BME280;50685;53.346;-6.296;2022-10-16T16:52:00;100117.59;;;10.93;81.97
64362;BME280;50685;53.346;-6.296;2022-10-16T16:57:48;100103.22;;;11.02;82.09
64362;BME280;50685;53.346;-6.296;2022-10-16T17:06:38;100074.53;;;11.17;82.93
64362;BME280;50685;53.346;-6.296;2022-10-16T17:17:29;100060.69;;;11.05;85.04
64362;BME280;50685;53.346;-6.296;2022-10-16T17:25:49;100035.97;;;11.05;86.38
64362;BME280;50685;53.346;-6.296;2022-10-16T17:34:25;100008.53;;;11.04;86.53
64362;BME280;50685;53.346;-6.296;2022-10-16T17:43:07;99973.13;;;11.05;87.35
64362;BME280;50685;53.346;-6.296;2022-10-16T17:48:36;99942.16;;;11.06;87.18
64362;BME280;50685;53.346;-6.296;2022-10-16T17:54:13;99955.25;;;11.12;87.09
64362;BME280;50685;53.346;-6.296;2022-10-16T18:06:26;99890.75;;;11.10;89.77
64362;BME280;50685;53.346;-6.296;2022-10-16T18:11:57;99871.34;;;11.08;90.88
64362;BME280;50685;53.346;-6.296;2022-10-16T18:14:38;99859.88;;;11.07;91.68
64362;BME280;50685;53.346;-6.296;2022-10-16T18:17:33;99867.78;;;11.09;91.75
64362;BME280;50685;53.346;-6.296;2022-10-16T18:20:01;99882.69;;;11.13;92.69
64362;BME280;50685;53.346;-6.296;2022-10-16T18:22:51;99876.47;;;11.14;93.50
64362;BME280;50685;53.346;-6.296;2022-10-16T18:25:17;99877.28;;;11.16;94.15
64362;BME280;50685;53.346;-6.296;2022-10-16T18:27:42;99869.22;;;11.19;94.48
64362;BME280;50685;53.346;-6.296;2022-10-16T18:30:11;99858.53;;;11.22;94.60
64362;BME280;50685;53.346;-6.296;2022-10-16T18:32:41;99846.09;;;11.23;94.49
64362;BME280;50685;53.346;-6.296;2022-10-16T18:35:07;99831.88;;;11.25;94.62
64362;BME280;50685;53.346;-6.296;2022-10-16T18:37:34;99845.97;;;11.28;94.41
64362;BME280;50685;53.346;-6.296;2022-10-16T18:40:03;99845.78;;;11.34;94.24
64362;BME280;50685;53.346;-6.296;2022-10-16T18:42:29;99828.81;;;11.38;94.31
64362;BME280;50685;53.346;-6.296;2022-10-16T18:44:54;99819.94;;;11.40;94.48
64362;BME280;50685;53.346;-6.296;2022-10-16T18:47:19;99814.56;;;11.42;94.57
64362;BME280;50685;53.346;-6.296;2022-10-16T18:49:47;99821.56;;;11.45;94.86
64362;BME280;50685;53.346;-6.296;2022-10-16T18:52:12;99826.88;;;11.45;94.71
64362;BME280;50685;53.346;-6.296;2022-10-16T18:54:40;99834.69;;;11.49;94.60
64362;BME280;50685;53.346;-6.296;2022-10-16T18:57:06;99854.06;;;11.53;93.74
64362;BME280;50685;53.346;-6.296;2022-10-16T18:59:31;99837.72;;;11.65;92.21
64362;BME280;50685;53.346;-6.296;2022-10-16T19:02:02;99846.13;;;11.78;89.86
64362;BME280;50685;53.346;-6.296;2022-10-16T19:04:48;99831.63;;;11.88;88.27
64362;BME280;50685;53.346;-6.296;2022-10-16T19:07:16;99831.50;;;11.92;87.50
64362;BME280;50685;53.346;-6.296;2022-10-16T19:12:26;99810.16;;;11.95;87.04
64362;BME280;50685;53.346;-6.296;2022-10-16T19:14:51;99804.94;;;11.92;87.33
64362;BME280;50685;53.346;-6.296;2022-10-16T19:17:28;99790.63;;;11.96;86.92
64362;BME280;50685;53.346;-6.296;2022-10-16T19:19:56;99790.56;;;11.99;87.03
64362;BME280;50685;53.346;-6.296;2022-10-16T19:22:45;99791.31;;;12.02;87.32
64362;BME280;50685;53.346;-6.296;2022-10-16T19:29:21;99770.41;;;11.92;88.50
64362;BME280;50685;53.346;-6.296;2022-10-16T19:31:35;99762.44;;;11.92;89.18
64362;BME280;50685;53.346;-6.296;2022-10-16T19:34:11;99734.88;;;11.94;88.61
64362;BME280;50685;53.346;-6.296;2022-10-16T19:36:37;99733.97;;;11.95;89.01
64362;BME280;50685;53.346;-6.296;2022-10-16T19:48:18;99729.78;;;11.88;92.68
64362;BME280;50685;53.346;-6.296;2022-10-16T19:50:58;99719.91;;;11.92;92.45
64362;BME280;50685;53.346;-6.296;2022-10-16T20:02:13;99722.56;;;11.92;94.36
64362;BME280;50685;53.346;-6.296;2022-10-16T20:10:53;99713.63;;;11.94;94.40
64362;BME280;50685;53.346;-6.296;2022-10-16T20:13:27;99696.75;;;11.95;94.72
64362;BME280;50685;53.346;-6.296;2022-10-16T20:16:04;99687.91;;;11.96;94.93
64362;BME280;50685;53.346;-6.296;2022-10-16T20:22:08;99676.50;;;11.93;96.14
64362;BME280;50685;53.346;-6.296;2022-10-16T20:24:48;99681.81;;;11.93;95.87
64362;BME280;50685;53.346;-6.296;2022-10-16T20:30:37;99664.88;;;11.95;96.30
64362;BME280;50685;53.346;-6.296;2022-10-16T20:33:26;99671.81;;;12.01;95.82
64362;BME280;50685;53.346;-6.296;2022-10-16T20:38:56;99685.78;;;12.06;95.42
64362;BME280;50685;53.346;-6.296;2022-10-16T20:41:21;99677.88;;;12.04;96.10
64362;BME280;50685;53.346;-6.296;2022-10-16T20:43:50;99681.47;;;12.02;96.31
64362;BME280;50685;53.346;-6.296;2022-10-16T20:46:22;99694.78;;;12.02;96.62
64362;BME280;50685;53.346;-6.296;2022-10-16T20:49:05;99685.13;;;11.99;97.00
64362;BME280;50685;53.346;-6.296;2022-10-16T20:51:46;99660.22;;;12.02;97.37
64362;BME280;50685;53.346;-6.296;2022-10-16T20:54:14;99685.03;;;12.02;97.63
64362;BME280;50685;53.346;-6.296;2022-10-16T20:56:42;99718.75;;;12.00;99.32
64362;BME280;50685;53.346;-6.296;2022-10-16T20:59:11;99720.97;;;11.87;98.35
64362;BME280;50685;53.346;-6.296;2022-10-16T21:04:29;99698.94;;;11.33;97.86
64362;BME280;50685;53.346;-6.296;2022-10-16T21:06:55;99700.03;;;11.26;98.20
64362;BME280;50685;53.346;-6.296;2022-10-16T21:09:21;99686.50;;;11.07;94.79
64362;BME280;50685;53.346;-6.296;2022-10-16T21:11:46;99702.88;;;10.93;93.91
64362;BME280;50685;53.346;-6.296;2022-10-16T21:14:12;99713.81;;;10.82;94.73
64362;BME280;50685;53.346;-6.296;2022-10-16T21:16:39;99717.53;;;10.76;95.98
64362;BME280;50685;53.346;-6.296;2022-10-16T21:19:11;99722.81;;;10.76;97.03
64362;BME280;50685;53.346;-6.296;2022-10-16T21:21:45;99718.41;;;10.77;97.65
64362;BME280;50685;53.346;-6.296;2022-10-16T21:24:17;99713.75;;;10.85;98.73
64362;BME280;50685;53.346;-6.296;2022-10-16T21:26:42;99703.84;;;10.90;98.99
64362;BME280;50685;53.346;-6.296;2022-10-16T21:29:12;99703.84;;;10.90;99.26
64362;BME280;50685;53.346;-6.296;2022-10-16T21:31:37;99694.03;;;10.92;100.00
64362;BME280;50685;53.346;-6.296;2022-10-16T21:34:02;99695.91;;;10.90;100.00
64362;BME280;50685;53.346;-6.296;2022-10-16T21:36:29;99682.72;;;10.87;100.00
64362;BME280;50685;53.346;-6.296;2022-10-16T21:38:58;99685.44;;;10.86;100.00
64362;BME280;50685;53.346;-6.296;2022-10-16T21:41:25;99679.09;;;10.90;100.00
64362;BME280;50685;53.346;-6.296;2022-10-16T21:43:51;99681.75;;;10.90;100.00
64362;BME280;50685;53.346;-6.296;2022-10-16T21:46:18;99694.97;;;10.91;99.61
64362;BME280;50685;53.346;-6.296;2022-10-16T21:48:43;99686.19;;;10.89;98.45
64362;BME280;50685;53.346;-6.296;2022-10-16T21:51:11;99690.66;;;10.89;98.97
64362;BME280;50685;53.346;-6.296;2022-10-16T21:53:37;99691.63;;;10.85;97.85
64362;BME280;50685;53.346;-6.296;2022-10-16T21:56:03;99692.53;;;10.85;96.72
64362;BME280;50685;53.346;-6.296;2022-10-16T21:58:34;99702.38;;;10.82;96.73
64362;BME280;50685;53.346;-6.296;2022-10-16T22:04:11;99704.25;;;10.78;95.24
64362;BME280;50685;53.346;-6.296;2022-10-16T22:06:40;99711.22;;;10.81;94.08
64362;BME280;50685;53.346;-6.296;2022-10-16T22:09:08;99712.09;;;10.81;94.44
64362;BME280;50685;53.346;-6.296;2022-10-16T22:11:45;99712.09;;;10.81;93.90
64362;BME280;50685;53.346;-6.296;2022-10-16T22:14:34;99714.66;;;10.84;93.35
64362;BME280;50685;53.346;-6.296;2022-10-16T22:17:01;99712.03;;;10.83;93.28
64362;BME280;50685;53.346;-6.296;2022-10-16T22:19:31;99723.53;;;10.83;93.06
64362;BME280;50685;53.346;-6.296;2022-10-16T22:31:08;99706.25;;;10.98;90.01
64362;BME280;50685;53.346;-6.296;2022-10-16T22:33:33;99687.47;;;11.04;87.75
64362;BME280;50685;53.346;-6.296;2022-10-16T22:36:02;99685.59;;;11.08;87.32
64362;BME280;50685;53.346;-6.296;2022-10-16T22:41:31;99665.06;;;11.13;86.35
64362;BME280;50685;53.346;-6.296;2022-10-16T22:43:59;99686.28;;;11.15;85.26
64362;BME280;50685;53.346;-6.296;2022-10-16T22:46:29;99687.28;;;11.11;86.00
64362;BME280;50685;53.346;-6.296;2022-10-16T22:49:12;99692.38;;;11.17;84.87
64362;BME280;50685;53.346;-6.296;2022-10-16T22:55:01;99684.22;;;11.23;83.24
64362;BME280;50685;53.346;-6.296;2022-10-16T23:10:15;99684.31;;;11.20;82.35
64362;BME280;50685;53.346;-6.296;2022-10-16T23:12:41;99689.84;;;11.14;82.74
64362;BME280;50685;53.346;-6.296;2022-10-16T23:15:16;99689.72;;;11.17;81.54
64362;BME280;50685;53.346;-6.296;2022-10-16T23:21:08;99691.25;;;11.24;79.86
64362;BME280;50685;53.346;-6.296;2022-10-16T23:23:46;99678.88;;;11.24;79.97
64362;BME280;50685;53.346;-6.296;2022-10-16T23:26:15;99679.88;;;11.20;80.64
64362;BME280;50685;53.346;-6.296;2022-10-16T23:28:46;99678.25;;;11.16;80.59
64362;BME280;50685;53.346;-6.296;2022-10-16T23:31:12;99670.22;;;11.18;79.89
64362;BME280;50685;53.346;-6.296;2022-10-16T23:33:38;99661.91;;;11.29;78.14
64362;BME280;50685;53.346;-6.296;2022-10-16T23:36:13;99666.25;;;11.31;78.60
64362;BME280;50685;53.346;-6.296;2022-10-16T23:38:45;99660.09;;;11.31;78.48
64362;BME280;50685;53.346;-6.296;2022-10-16T23:47:24;99657.09;;;11.40;76.83
64362;BME280;50685;53.346;-6.296;2022-10-16T23:49:55;99664.22;;;11.39;76.89
64362;BME280;50685;53.346;-6.296;2022-10-16T23:52:20;99667.88;;;11.35;77.29
64362;BME280;50685;53.346;-6.296;2022-10-16T23:54:59;99652.16;;;11.29;77.21
64362;BME280;50685;53.346;-6.296;2022-10-16T23:57:24;99668.19;;;11.26;76.91
64362;BME280;50685;53.346;-6.296;2022-10-16T23:59:50;99653.25;;;11.23;77.45
